sensor_id;sensor_type;location;lat;lon;timestamp;P1;durP1;ratioP1;P2;durP2;ratioP2
19235;SDS011;9752;54.270;12.470;2023-04-01T00:02:26;13.37;;;7.87;;
19235;SDS011;9752;54.270;12.470;2023-04-01T00:07:29;9.87;;;8.57;;
19235;SDS011;9752;54.270;12.470;2023-04-01T00:12:31;13.70;;;8.37;;
19235;SDS011;9752;54.270;12.470;2023-04-01T00:17:32;10.10;;;7.93;;
19235;SDS011;9752;54.270;12.470;2023-04-01T00:22:36;10.53;;;8.43;;
19235;SDS011;9752;54.270;12.470;2023-04-01T00:27:38;9.20;;;7.47;;
19235;SDS011;9752;54.270;12.470;2023-04-01T00:32:40;9.13;;;7.37;;
19235;SDS011;9752;54.270;12.470;2023-04-01T00:37:43;11.30;;;7.57;;
19235;SDS011;9752;54.270;12.470;2023-04-01T00:42:44;13.20;;;8.27;;
19235;SDS011;9752;54.270;12.470;2023-04-01T00:47:46;9.43;;;8.37;;
19235;SDS011;9752;54.270;12.470;2023-04-01T00:52:49;11.63;;;9.67;;
19235;SDS011;9752;54.270;12.470;2023-04-01T00:57:51;11.87;;;9.13;;
19235;SDS011;9752;54.270;12.470;2023-04-01T01:02:57;10.83;;;8.97;;
19235;SDS011;9752;54.270;12.470;2023-04-01T01:08:01;14.93;;;11.03;;
19235;SDS011;9752;54.270;12.470;2023-04-01T01:13:14;12.77;;;9.10;;
19235;SDS011;9752;54.270;12.470;2023-04-01T01:18:22;16.03;;;10.17;;
19235;SDS011;9752;54.270;12.470;2023-04-01T01:23:33;16.53;;;9.37;;
19235;SDS011;9752;54.270;12.470;2023-04-01T01:28:51;12.13;;;10.17;;
19235;SDS011;9752;54.270;12.470;2023-04-01T01:34:07;15.97;;;9.77;;
19235;SDS011;9752;54.270;12.470;2023-04-01T01:39:18;13.90;;;9.53;;
19235;SDS011;9752;54.270;12.470;2023-04-01T01:44:27;14.73;;;10.97;;
19235;SDS011;9752;54.270;12.470;2023-04-01T01:49:32;12.77;;;9.67;;
19235;SDS011;9752;54.270;12.470;2023-04-01T01:54:47;17.00;;;10.33;;
19235;SDS011;9752;54.270;12.470;2023-04-01T01:59:49;13.17;;;10.33;;
19235;SDS011;9752;54.270;12.470;2023-04-01T02:04:58;17.47;;;10.33;;
19235;SDS011;9752;54.270;12.470;2023-04-01T02:10:01;11.20;;;8.53;;
19235;SDS011;9752;54.270;12.470;2023-04-01T02:15:05;18.37;;;10.50;;
19235;SDS011;9752;54.270;12.470;2023-04-01T02:20:10;20.20;;;10.93;;
19235;SDS011;9752;54.270;12.470;2023-04-01T02:25:17;16.60;;;10.33;;
19235;SDS011;9752;54.270;12.470;2023-04-01T02:30:21;12.67;;;9.20;;
19235;SDS011;9752;54.270;12.470;2023-04-01T02:35:24;14.03;;;9.00;;
19235;SDS011;9752;54.270;12.470;2023-04-01T02:40:28;17.90;;;11.20;;
19235;SDS011;9752;54.270;12.470;2023-04-01T02:45:29;20.10;;;10.90;;
19235;SDS011;9752;54.270;12.470;2023-04-01T02:50:31;20.77;;;11.93;;
19235;SDS011;9752;54.270;12.470;2023-04-01T02:55:34;13.63;;;9.23;;
19235;SDS011;9752;54.270;12.470;2023-04-01T03:00:36;13.33;;;9.07;;
19235;SDS011;9752;54.270;12.470;2023-04-01T03:05:38;13.17;;;9.43;;
19235;SDS011;9752;54.270;12.470;2023-04-01T03:10:41;17.70;;;10.23;;
19235;SDS011;9752;54.270;12.470;2023-04-01T03:15:43;16.27;;;10.63;;
19235;SDS011;9752;54.270;12.470;2023-04-01T03:20:44;16.27;;;10.17;;
19235;SDS011;9752;54.270;12.470;2023-04-01T03:25:47;12.40;;;9.00;;
19235;SDS011;9752;54.270;12.470;2023-04-01T03:30:49;15.80;;;8.73;;
19235;SDS011;9752;54.270;12.470;2023-04-01T03:35:51;10.47;;;9.07;;
19235;SDS011;9752;54.270;12.470;2023-04-01T03:40:54;11.03;;;8.30;;
19235;SDS011;9752;54.270;12.470;2023-04-01T03:45:56;9.57;;;8.33;;
19235;SDS011;9752;54.270;12.470;2023-04-01T03:50:59;13.40;;;9.03;;
19235;SDS011;9752;54.270;12.470;2023-04-01T03:56:04;12.20;;;8.87;;
19235;SDS011;9752;54.270;12.470;2023-04-01T04:01:16;10.20;;;7.83;;
19235;SDS011;9752;54.270;12.470;2023-04-01T04:06:20;15.57;;;9.40;;
19235;SDS011;9752;54.270;12.470;2023-04-01T04:11:24;14.70;;;8.67;;
19235;SDS011;9752;54.270;12.470;2023-04-01T04:16:26;18.67;;;9.70;;
19235;SDS011;9752;54.270;12.470;2023-04-01T04:21:32;17.03;;;9.57;;
19235;SDS011;9752;54.270;12.470;2023-04-01T04:26:36;11.67;;;9.37;;
19235;SDS011;9752;54.270;12.470;2023-04-01T04:31:38;13.47;;;9.50;;
19235;SDS011;9752;54.270;12.470;2023-04-01T04:36:40;15.43;;;9.93;;
19235;SDS011;9752;54.270;12.470;2023-04-01T04:41:44;15.03;;;11.27;;
19235;SDS011;9752;54.270;12.470;2023-04-01T04:46:45;14.90;;;11.20;;
19235;SDS011;9752;54.270;12.470;2023-04-01T04:51:48;12.97;;;9.43;;
19235;SDS011;9752;54.270;12.470;2023-04-01T04:56:54;16.53;;;10.50;;
19235;SDS011;9752;54.270;12.470;2023-04-01T05:01:57;18.97;;;10.87;;
19235;SDS011;9752;54.270;12.470;2023-04-01T05:06:59;17.17;;;9.57;;
19235;SDS011;9752;54.270;12.470;2023-04-01T05:12:02;12.80;;;9.97;;
19235;SDS011;9752;54.270;12.470;2023-04-01T05:17:23;14.93;;;10.00;;
19235;SDS011;9752;54.270;12.470;2023-04-01T05:22:26;20.83;;;9.23;;
19235;SDS011;9752;54.270;12.470;2023-04-01T05:27:29;17.00;;;9.13;;
19235;SDS011;9752;54.270;12.470;2023-04-01T05:32:30;10.50;;;6.90;;
19235;SDS011;9752;54.270;12.470;2023-04-01T05:37:33;10.97;;;7.83;;
19235;SDS011;9752;54.270;12.470;2023-04-01T05:42:36;11.03;;;7.70;;
19235;SDS011;9752;54.270;12.470;2023-04-01T05:47:38;11.63;;;7.67;;
19235;SDS011;9752;54.270;12.470;2023-04-01T05:52:40;12.17;;;8.00;;
19235;SDS011;9752;54.270;12.470;2023-04-01T05:57:44;15.27;;;9.50;;
19235;SDS011;9752;54.270;12.470;2023-04-01T06:02:48;14.10;;;9.57;;
19235;SDS011;9752;54.270;12.470;2023-04-01T06:07:50;19.77;;;11.13;;
19235;SDS011;9752;54.270;12.470;2023-04-01T06:12:58;16.77;;;9.37;;
19235;SDS011;9752;54.270;12.470;2023-04-01T06:18:19;16.73;;;10.13;;
19235;SDS011;9752;54.270;12.470;2023-04-01T06:23:45;14.40;;;10.53;;
19235;SDS011;9752;54.270;12.470;2023-04-01T06:29:03;14.43;;;10.50;;
19235;SDS011;9752;54.270;12.470;2023-04-01T06:34:25;13.37;;;10.50;;
19235;SDS011;9752;54.270;12.470;2023-04-01T06:39:52;19.67;;;9.90;;
19235;SDS011;9752;54.270;12.470;2023-04-01T06:45:10;15.17;;;10.97;;
19235;SDS011;9752;54.270;12.470;2023-04-01T06:50:47;16.63;;;11.83;;
19235;SDS011;9752;54.270;12.470;2023-04-01T06:56:34;21.07;;;11.80;;
19235;SDS011;9752;54.270;12.470;2023-04-01T07:01:49;23.53;;;12.90;;
19235;SDS011;9752;54.270;12.470;2023-04-01T07:06:55;22.80;;;12.30;;
19235;SDS011;9752;54.270;12.470;2023-04-01T07:12:00;22.70;;;11.37;;
19235;SDS011;9752;54.270;12.470;2023-04-01T07:17:35;23.47;;;12.13;;
19235;SDS011;9752;54.270;12.470;2023-04-01T07:22:40;21.50;;;11.37;;
19235;SDS011;9752;54.270;12.470;2023-04-01T07:27:55;16.70;;;10.83;;
19235;SDS011;9752;54.270;12.470;2023-04-01T07:33:03;26.67;;;11.57;;
19235;SDS011;9752;54.270;12.470;2023-04-01T07:38:14;18.97;;;12.93;;
19235;SDS011;9752;54.270;12.470;2023-04-01T07:43:24;20.87;;;11.17;;
19235;SDS011;9752;54.270;12.470;2023-04-01T07:48:52;17.43;;;12.27;;
19235;SDS011;9752;54.270;12.470;2023-04-01T07:54:01;19.90;;;12.20;;
19235;SDS011;9752;54.270;12.470;2023-04-01T07:59:11;28.93;;;12.90;;
19235;SDS011;9752;54.270;12.470;2023-04-01T08:04:38;17.50;;;11.47;;
19235;SDS011;9752;54.270;12.470;2023-04-01T08:09:53;12.20;;;8.90;;
19235;SDS011;9752;54.270;12.470;2023-04-01T08:15:21;17.07;;;9.73;;
19235;SDS011;9752;54.270;12.470;2023-04-01T08:20:39;13.73;;;9.73;;
19235;SDS011;9752;54.270;12.470;2023-04-01T08:25:48;19.57;;;9.90;;
19235;SDS011;9752;54.270;12.470;2023-04-01T08:30:58;20.67;;;11.47;;
19235;SDS011;9752;54.270;12.470;2023-04-01T08:36:08;19.37;;;11.23;;
19235;SDS011;9752;54.270;12.470;2023-04-01T08:41:28;22.40;;;10.60;;
19235;SDS011;9752;54.270;12.470;2023-04-01T08:52:31;21.30;;;10.37;;
19235;SDS011;9752;54.270;12.470;2023-04-01T08:57:40;15.37;;;9.90;;
19235;SDS011;9752;54.270;12.470;2023-04-01T09:03:24;19.10;;;10.30;;
19235;SDS011;9752;54.270;12.470;2023-04-01T09:09:00;20.43;;;10.80;;
19235;SDS011;9752;54.270;12.470;2023-04-01T09:20:17;16.10;;;9.83;;
19235;SDS011;9752;54.270;12.470;2023-04-01T09:25:46;12.37;;;8.80;;
19235;SDS011;9752;54.270;12.470;2023-04-01T09:37:20;18.57;;;10.40;;
19235;SDS011;9752;54.270;12.470;2023-04-01T09:42:39;14.67;;;10.00;;
19235;SDS011;9752;54.270;12.470;2023-04-01T09:47:57;17.63;;;9.70;;
19235;SDS011;9752;54.270;12.470;2023-04-01T09:53:11;14.43;;;8.53;;
19235;SDS011;9752;54.270;12.470;2023-04-01T09:58:27;11.50;;;9.20;;
19235;SDS011;9752;54.270;12.470;2023-04-01T10:09:42;15.57;;;9.90;;
19235;SDS011;9752;54.270;12.470;2023-04-01T10:21:04;12.07;;;9.53;;
19235;SDS011;9752;54.270;12.470;2023-04-01T10:26:21;13.53;;;10.23;;
19235;SDS011;9752;54.270;12.470;2023-04-01T10:31:55;12.50;;;9.10;;
19235;SDS011;9752;54.270;12.470;2023-04-01T10:37:15;12.07;;;10.10;;
19235;SDS011;9752;54.270;12.470;2023-04-01T10:48:36;14.17;;;9.07;;
19235;SDS011;9752;54.270;12.470;2023-04-01T10:54:06;10.77;;;9.70;;
19235;SDS011;9752;54.270;12.470;2023-04-01T10:59:41;10.87;;;9.77;;
19235;SDS011;9752;54.270;12.470;2023-04-01T11:05:26;9.97;;;9.07;;
19235;SDS011;9752;54.270;12.470;2023-04-01T11:22:35;10.40;;;9.47;;
19235;SDS011;9752;54.270;12.470;2023-04-01T11:27:53;12.67;;;9.37;;
19235;SDS011;9752;54.270;12.470;2023-04-01T11:33:14;12.13;;;9.87;;
19235;SDS011;9752;54.270;12.470;2023-04-01T11:38:45;14.47;;;10.90;;
19235;SDS011;9752;54.270;12.470;2023-04-01T11:44:34;12.50;;;10.37;;
19235;SDS011;9752;54.270;12.470;2023-04-01T11:49:53;14.30;;;9.70;;
19235;SDS011;9752;54.270;12.470;2023-04-01T11:55:25;12.50;;;10.37;;
19235;SDS011;9752;54.270;12.470;2023-04-01T12:00:44;11.97;;;10.43;;
19235;SDS011;9752;54.270;12.470;2023-04-01T12:06:05;10.20;;;9.30;;
19235;SDS011;9752;54.270;12.470;2023-04-01T12:11:17;13.40;;;10.73;;
19235;SDS011;9752;54.270;12.470;2023-04-01T12:22:00;11.73;;;10.57;;
19235;SDS011;9752;54.270;12.470;2023-04-01T12:27:34;13.23;;;11.83;;
19235;SDS011;9752;54.270;12.470;2023-04-01T12:32:45;11.20;;;10.20;;
19235;SDS011;9752;54.270;12.470;2023-04-01T12:38:00;12.70;;;11.33;;
19235;SDS011;9752;54.270;12.470;2023-04-01T12:43:21;11.73;;;10.80;;
19235;SDS011;9752;54.270;12.470;2023-04-01T12:48:39;12.90;;;11.13;;
19235;SDS011;9752;54.270;12.470;2023-04-01T12:54:14;10.53;;;9.77;;
19235;SDS011;9752;54.270;12.470;2023-04-01T12:59:50;11.13;;;10.27;;
19235;SDS011;9752;54.270;12.470;2023-04-01T13:05:14;20.57;;;11.57;;
19235;SDS011;9752;54.270;12.470;2023-04-01T13:10:27;10.50;;;9.80;;
19235;SDS011;9752;54.270;12.470;2023-04-01T13:15:41;11.80;;;10.67;;
19235;SDS011;9752;54.270;12.470;2023-04-01T13:20:48;11.10;;;10.13;;
19235;SDS011;9752;54.270;12.470;2023-04-01T13:26:02;11.07;;;10.20;;
19235;SDS011;9752;54.270;12.470;2023-04-01T13:31:12;11.13;;;10.30;;
19235;SDS011;9752;54.270;12.470;2023-04-01T13:36:28;12.40;;;11.60;;
19235;SDS011;9752;54.270;12.470;2023-04-01T13:41:41;10.93;;;10.07;;
19235;SDS011;9752;54.270;12.470;2023-04-01T13:47:08;11.43;;;10.33;;
19235;SDS011;9752;54.270;12.470;2023-04-01T13:52:29;10.40;;;9.50;;
19235;SDS011;9752;54.270;12.470;2023-04-01T13:57:48;12.30;;;11.00;;
19235;SDS011;9752;54.270;12.470;2023-04-01T14:08:42;10.40;;;9.33;;
19235;SDS011;9752;54.270;12.470;2023-04-01T14:13:56;11.30;;;9.10;;
19235;SDS011;9752;54.270;12.470;2023-04-01T14:19:15;14.37;;;8.53;;
19235;SDS011;9752;54.270;12.470;2023-04-01T14:24:35;9.40;;;8.50;;
19235;SDS011;9752;54.270;12.470;2023-04-01T14:29:56;9.83;;;8.80;;
19235;SDS011;9752;54.270;12.470;2023-04-01T14:35:13;8.97;;;7.70;;
19235;SDS011;9752;54.270;12.470;2023-04-01T14:40:27;9.70;;;8.93;;
19235;SDS011;9752;54.270;12.470;2023-04-01T14:45:45;9.20;;;8.60;;
19235;SDS011;9752;54.270;12.470;2023-04-01T14:50:54;10.97;;;9.93;;
19235;SDS011;9752;54.270;12.470;2023-04-01T14:55:59;10.83;;;9.83;;
19235;SDS011;9752;54.270;12.470;2023-04-01T15:01:07;11.63;;;10.30;;
19235;SDS011;9752;54.270;12.470;2023-04-01T15:12:00;10.33;;;9.60;;
19235;SDS011;9752;54.270;12.470;2023-04-01T15:17:19;9.90;;;9.20;;
19235;SDS011;9752;54.270;12.470;2023-04-01T15:22:44;9.93;;;9.07;;
19235;SDS011;9752;54.270;12.470;2023-04-01T15:27:57;10.57;;;9.53;;
19235;SDS011;9752;54.270;12.470;2023-04-01T15:33:19;12.67;;;10.20;;
19235;SDS011;9752;54.270;12.470;2023-04-01T15:38:40;9.70;;;8.90;;
19235;SDS011;9752;54.270;12.470;2023-04-01T15:43:49;9.47;;;8.67;;
19235;SDS011;9752;54.270;12.470;2023-04-01T15:48:55;10.07;;;9.23;;
19235;SDS011;9752;54.270;12.470;2023-04-01T15:59:41;9.57;;;8.97;;
19235;SDS011;9752;54.270;12.470;2023-04-01T16:04:57;14.37;;;11.03;;
19235;SDS011;9752;54.270;12.470;2023-04-01T16:10:13;11.50;;;10.50;;
19235;SDS011;9752;54.270;12.470;2023-04-01T16:15:24;11.23;;;10.53;;
19235;SDS011;9752;54.270;12.470;2023-04-01T16:20:35;11.30;;;10.27;;
19235;SDS011;9752;54.270;12.470;2023-04-01T16:25:49;11.43;;;10.60;;
19235;SDS011;9752;54.270;12.470;2023-04-01T16:30:57;11.60;;;10.90;;
19235;SDS011;9752;54.270;12.470;2023-04-01T16:36:04;12.07;;;11.07;;
19235;SDS011;9752;54.270;12.470;2023-04-01T16:41:14;11.83;;;11.13;;
19235;SDS011;9752;54.270;12.470;2023-04-01T16:46:30;13.17;;;12.17;;
19235;SDS011;9752;54.270;12.470;2023-04-01T16:51:37;12.03;;;11.13;;
19235;SDS011;9752;54.270;12.470;2023-04-01T16:56:49;13.20;;;10.77;;
19235;SDS011;9752;54.270;12.470;2023-04-01T17:01:55;11.10;;;10.30;;
19235;SDS011;9752;54.270;12.470;2023-04-01T17:07:10;11.20;;;10.60;;
19235;SDS011;9752;54.270;12.470;2023-04-01T17:12:24;11.43;;;10.53;;
19235;SDS011;9752;54.270;12.470;2023-04-01T17:17:31;11.30;;;10.70;;
19235;SDS011;9752;54.270;12.470;2023-04-01T17:22:40;11.37;;;10.33;;
19235;SDS011;9752;54.270;12.470;2023-04-01T17:27:52;11.13;;;10.00;;
19235;SDS011;9752;54.270;12.470;2023-04-01T17:33:13;11.63;;;9.70;;
19235;SDS011;9752;54.270;12.470;2023-04-01T17:38:40;16.07;;;11.20;;
19235;SDS011;9752;54.270;12.470;2023-04-01T17:44:07;10.83;;;10.03;;
19235;SDS011;9752;54.270;12.470;2023-04-01T17:49:22;11.07;;;10.27;;
19235;SDS011;9752;54.270;12.470;2023-04-01T17:54:30;12.77;;;11.37;;
19235;SDS011;9752;54.270;12.470;2023-04-01T17:59:44;12.43;;;11.13;;
19235;SDS011;9752;54.270;12.470;2023-04-01T18:10:28;11.90;;;11.00;;
19235;SDS011;9752;54.270;12.470;2023-04-01T18:15:38;11.27;;;10.47;;
19235;SDS011;9752;54.270;12.470;2023-04-01T18:20:50;12.37;;;11.67;;
19235;SDS011;9752;54.270;12.470;2023-04-01T18:26:02;12.93;;;11.93;;
19235;SDS011;9752;54.270;12.470;2023-04-01T18:31:11;11.97;;;11.17;;
19235;SDS011;9752;54.270;12.470;2023-04-01T18:36:18;12.37;;;11.37;;
19235;SDS011;9752;54.270;12.470;2023-04-01T18:41:26;11.37;;;10.37;;
19235;SDS011;9752;54.270;12.470;2023-04-01T18:46:38;10.67;;;9.87;;
19235;SDS011;9752;54.270;12.470;2023-04-01T18:51:48;10.63;;;9.80;;
19235;SDS011;9752;54.270;12.470;2023-04-01T18:56:59;11.40;;;10.60;;
19235;SDS011;9752;54.270;12.470;2023-04-01T19:02:15;11.10;;;10.20;;
19235;SDS011;9752;54.270;12.470;2023-04-01T19:07:43;11.77;;;10.60;;
19235;SDS011;9752;54.270;12.470;2023-04-01T19:12:51;10.93;;;9.93;;
19235;SDS011;9752;54.270;12.470;2023-04-01T19:23:51;11.83;;;10.40;;
19235;SDS011;9752;54.270;12.470;2023-04-01T19:29:02;11.40;;;10.70;;
19235;SDS011;9752;54.270;12.470;2023-04-01T19:34:18;11.90;;;10.97;;
19235;SDS011;9752;54.270;12.470;2023-04-01T19:39:33;12.00;;;11.30;;
19235;SDS011;9752;54.270;12.470;2023-04-01T19:44:41;12.90;;;11.80;;
19235;SDS011;9752;54.270;12.470;2023-04-01T19:49:55;12.47;;;11.47;;
19235;SDS011;9752;54.270;12.470;2023-04-01T19:55:22;12.80;;;11.80;;
19235;SDS011;9752;54.270;12.470;2023-04-01T20:00:36;12.23;;;11.43;;
19235;SDS011;9752;54.270;12.470;2023-04-01T20:05:45;11.80;;;10.90;;
19235;SDS011;9752;54.270;12.470;2023-04-01T20:10:55;12.00;;;11.00;;
19235;SDS011;9752;54.270;12.470;2023-04-01T20:16:07;11.90;;;10.93;;
19235;SDS011;9752;54.270;12.470;2023-04-01T20:21:20;11.23;;;10.63;;
19235;SDS011;9752;54.270;12.470;2023-04-01T20:26:32;13.43;;;12.20;;
19235;SDS011;9752;54.270;12.470;2023-04-01T20:31:36;12.53;;;11.63;;
19235;SDS011;9752;54.270;12.470;2023-04-01T20:36:46;13.23;;;12.23;;
19235;SDS011;9752;54.270;12.470;2023-04-01T20:42:03;13.90;;;12.47;;
19235;SDS011;9752;54.270;12.470;2023-04-01T20:47:22;12.53;;;11.70;;
19235;SDS011;9752;54.270;12.470;2023-04-01T20:52:35;13.23;;;12.33;;
19235;SDS011;9752;54.270;12.470;2023-04-01T20:57:42;12.23;;;11.43;;
19235;SDS011;9752;54.270;12.470;2023-04-01T21:02:58;12.13;;;11.53;;
19235;SDS011;9752;54.270;12.470;2023-04-01T21:08:12;12.50;;;11.70;;
19235;SDS011;9752;54.270;12.470;2023-04-01T21:13:25;12.40;;;11.70;;
19235;SDS011;9752;54.270;12.470;2023-04-01T21:18:47;13.40;;;12.60;;
19235;SDS011;9752;54.270;12.470;2023-04-01T21:24:03;13.70;;;12.43;;
19235;SDS011;9752;54.270;12.470;2023-04-01T21:29:37;12.70;;;12.00;;
19235;SDS011;9752;54.270;12.470;2023-04-01T21:34:49;13.90;;;13.00;;
19235;SDS011;9752;54.270;12.470;2023-04-01T21:40:00;12.70;;;11.90;;
19235;SDS011;9752;54.270;12.470;2023-04-01T21:45:21;13.50;;;12.60;;
19235;SDS011;9752;54.270;12.470;2023-04-01T22:01:58;13.47;;;12.67;;
19235;SDS011;9752;54.270;12.470;2023-04-01T22:07:20;13.40;;;12.33;;
19235;SDS011;9752;54.270;12.470;2023-04-01T22:12:26;13.00;;;12.20;;
19235;SDS011;9752;54.270;12.470;2023-04-01T22:17:35;13.30;;;12.40;;
19235;SDS011;9752;54.270;12.470;2023-04-01T22:28:15;14.13;;;13.30;;
19235;SDS011;9752;54.270;12.470;2023-04-01T22:33:24;13.90;;;12.80;;
19235;SDS011;9752;54.270;12.470;2023-04-01T22:38:39;13.70;;;12.90;;
19235;SDS011;9752;54.270;12.470;2023-04-01T22:43:57;14.27;;;13.13;;
19235;SDS011;9752;54.270;12.470;2023-04-01T22:49:02;14.63;;;13.67;;
19235;SDS011;9752;54.270;12.470;2023-04-01T22:54:12;15.07;;;13.97;;
19235;SDS011;9752;54.270;12.470;2023-04-01T22:59:24;14.40;;;13.60;;
19235;SDS011;9752;54.270;12.470;2023-04-01T23:04:32;14.63;;;13.73;;
19235;SDS011;9752;54.270;12.470;2023-04-01T23:09:37;14.37;;;13.47;;
19235;SDS011;9752;54.270;12.470;2023-04-01T23:20:03;15.10;;;13.93;;
19235;SDS011;9752;54.270;12.470;2023-04-01T23:25:17;16.33;;;14.90;;
19235;SDS011;9752;54.270;12.470;2023-04-01T23:35:53;14.23;;;13.40;;
19235;SDS011;9752;54.270;12.470;2023-04-01T23:40:56;14.17;;;13.33;;
19235;SDS011;9752;54.270;12.470;2023-04-01T23:46:00;13.67;;;13.07;;
19235;SDS011;9752;54.270;12.470;2023-04-01T23:51:08;14.40;;;13.50;;
19235;SDS011;9752;54.270;12.470;2023-04-01T23:56:16;13.90;;;13.17;;
